Time;durP1;ratioP1;P1;durP2;ratioP2;P2;SDS_P1;SDS_P2;PMS_P1;PMS_P2;Temp;Humidity;BMP_temperature;BMP_pressure;BME280_temperature;BME280_humidity;BME280_pressure;Samples;Min_cycle;Max_cycle;Signal;HPM_P1;HPM_P2
2023/08/28 00:01:51;;;;;;;;;;;15.10;99.90;;;;;;5024815;28;19975;-72
2023/08/28 00:04:19;;;;;;;;;;;15.10;99.90;;;;;;5024962;28;20088;-72
2023/08/28 00:06:45;;;;;;;;;;;15.10;99.90;;;;;;5024945;28;19928;-72
2023/08/28 00:09:14;;;;;;;;;;;15.10;99.90;;;;;;5023410;28;20290;-72
2023/08/28 00:11:40;;;;;;;;;;;15.10;99.90;;;;;;5024456;28;20232;-73
2023/08/28 00:14:07;;;;;;;;;;;15.10;99.90;;;;;;5024746;28;19985;-72
2023/08/28 00:16:35;;;;;;;;;;;15.10;99.90;;;;;;5023303;28;20130;-72
2023/08/28 00:19:02;;;;;;;;;;;15.10;99.90;;;;;;5023934;28;19984;-72
2023/08/28 00:21:30;;;;;;;;;;;15.10;99.90;;;;;;5024205;28;19921;-72
2023/08/28 00:23:56;;;;;;;;;;;15.10;99.90;;;;;;5024535;28;19964;-72
2023/08/28 00:26:23;;;;;;;;;;;15.10;99.90;;;;;;5024260;28;20264;-72
2023/08/28 00:28:49;;;;;;;;;;;15.20;99.90;;;;;;5024082;28;19984;-72
2023/08/28 00:31:16;;;;;;;;;;;15.10;99.90;;;;;;5024112;28;20412;-72
2023/08/28 00:33:43;;;;;;;;;;;15.10;99.90;;;;;;5024456;28;19960;-73
2023/08/28 00:36:09;;;;;;;;;;;15.10;99.90;;;;;;5023774;28;20217;-73
2023/08/28 00:38:37;;;;;;;;;;;15.20;99.90;;;;;;5023735;28;19956;-74
2023/08/28 00:41:04;;;;;;;;;;;15.20;99.90;;;;;;5024224;28;19992;-73
2023/08/28 00:43:30;;;;;;;;;;;15.20;99.90;;;;;;5024396;28;20247;-72
2023/08/28 00:45:57;;;;;;;;;;;15.20;99.90;;;;;;5024107;28;19984;-72
2023/08/28 00:48:24;;;;;;;;;;;15.20;99.90;;;;;;5023578;28;19963;-73
2023/08/28 00:50:51;;;;;;;;;;;15.20;99.90;;;;;;5024177;28;19921;-73
2023/08/28 00:53:18;;;;;;;;;;;15.10;99.90;;;;;;5023700;28;19922;-72
2023/08/28 00:55:46;;;;;;;;;;;15.10;99.90;;;;;;5023788;28;19952;-72
2023/08/28 00:58:13;;;;;;;;;;;15.10;99.90;;;;;;5023634;28;20166;-72
2023/08/28 01:00:40;;;;;;;;;;;15.10;99.90;;;;;;5023965;28;19922;-72
2023/08/28 01:03:07;;;;;;;;;;;15.20;99.90;;;;;;5023606;28;19921;-71
2023/08/28 01:05:40;;;;;;;;;;;15.10;99.90;;;;;;5023657;28;19921;-72
2023/08/28 01:08:10;;;;;;;;;;;15.10;99.90;;;;;;5023632;28;19928;-72
2023/08/28 01:10:39;;;;;;;;;;;15.20;99.90;;;;;;5023810;28;20188;-72
2023/08/28 01:13:10;;;;;;;;;;;15.10;99.90;;;;;;5023524;28;19963;-72
2023/08/28 01:15:37;;;;;;;;;;;15.10;99.90;;;;;;5023904;28;20176;-72
2023/08/28 01:18:04;;;;;;;;;;;15.10;99.90;;;;;;5023456;28;19960;-73
2023/08/28 01:20:31;;;;;;;;;;;15.00;99.90;;;;;;5023788;28;20181;-72
2023/08/28 01:23:00;;;;;;;;;;;15.00;99.90;;;;;;5023328;28;19985;-72
2023/08/28 01:25:29;;;;;;;;;;;15.00;99.90;;;;;;5023700;28;20181;-73
2023/08/28 01:27:56;;;;;;;;;;;15.00;99.90;;;;;;5023063;28;19921;-72
2023/08/28 01:30:23;;;;;;;;;;;14.90;99.90;;;;;;5024262;28;19921;-72
2023/08/28 01:32:50;;;;;;;;;;;15.00;99.90;;;;;;5027386;28;19985;-72
2023/08/28 01:35:19;;;;;;;;;;;14.90;99.90;;;;;;5027122;28;19926;-73
2023/08/28 01:37:51;;;;;;;;;;;14.90;99.90;;;;;;5027258;28;19921;-72
2023/08/28 01:40:21;;;;;;;;;;;14.90;99.90;;;;;;5027593;28;19921;-72
2023/08/28 01:42:50;;;;;;;;;;;14.90;99.90;;;;;;5026995;28;20299;-73
2023/08/28 01:45:17;;;;;;;;;;;14.90;99.90;;;;;;5026980;28;20280;-73
2023/08/28 01:47:43;;;;;;;;;;;14.90;99.90;;;;;;5027000;28;19922;-72
2023/08/28 01:50:10;;;;;;;;;;;14.90;99.90;;;;;;5027075;28;19964;-73
2023/08/28 01:52:37;;;;;;;;;;;14.90;99.90;;;;;;5026889;28;19984;-73
2023/08/28 01:55:04;;;;;;;;;;;14.90;99.90;;;;;;5027102;28;19922;-73
2023/08/28 01:57:31;;;;;;;;;;;14.80;99.90;;;;;;5026809;28;19951;-72
2023/08/28 01:59:59;;;;;;;;;;;14.90;99.90;;;;;;5026875;28;19982;-72
2023/08/28 02:02:26;;;;;;;;;;;14.80;99.90;;;;;;5026779;28;19996;-72
2023/08/28 02:04:52;;;;;;;;;;;14.80;99.90;;;;;;5027039;28;19921;-72
2023/08/28 02:07:19;;;;;;;;;;;14.90;99.90;;;;;;5026610;28;20176;-72
2023/08/28 02:09:47;;;;;;;;;;;14.80;99.90;;;;;;5026878;28;19992;-72
2023/08/28 02:12:14;;;;;;;;;;;14.80;99.90;;;;;;5026744;28;19922;-72
2023/08/28 02:14:40;;;;;;;;;;;14.90;99.90;;;;;;5026919;28;19964;-73
2023/08/28 02:17:08;;;;;;;;;;;14.80;99.90;;;;;;5026553;28;19921;-72
2023/08/28 02:19:35;;;;;;;;;;;14.90;99.90;;;;;;5026213;28;19952;-72
2023/08/28 02:22:01;;;;;;;;;;;14.80;99.90;;;;;;5026529;28;19988;-72
2023/08/28 02:24:33;;;;;;;;;;;14.80;99.90;;;;;;5025497;28;20225;-72
2023/08/28 02:27:00;;;;;;;;;;;14.80;99.90;;;;;;5026595;28;19953;-72
2023/08/28 02:29:27;;;;;;;;;;;14.80;99.90;;;;;;5026219;28;20117;-72
2023/08/28 02:31:54;;;;;;;;;;;14.80;99.90;;;;;;5026430;28;19988;-72
2023/08/28 02:34:22;;;;;;;;;;;14.80;99.90;;;;;;5026338;28;20124;-72
2023/08/28 02:36:48;;;;;;;;;;;14.80;99.90;;;;;;5026348;28;19957;-72
2023/08/28 02:39:15;;;;;;;;;;;14.80;99.90;;;;;;5025739;28;19953;-72
2023/08/28 02:41:41;;;;;;;;;;;14.80;99.90;;;;;;5025664;28;19921;-72
2023/08/28 02:44:08;;;;;;;;;;;14.80;99.90;;;;;;5025928;28;20227;-72
2023/08/28 02:46:35;;;;;;;;;;;14.80;99.90;;;;;;5026337;28;19989;-73
2023/08/28 02:49:01;;;;;;;;;;;14.80;99.90;;;;;;5025694;28;19922;-72
2023/08/28 02:51:29;;;;;;;;;;;14.80;99.90;;;;;;5025791;28;19922;-71
2023/08/28 02:53:56;;;;;;;;;;;14.80;99.90;;;;;;5025752;28;19921;-71
2023/08/28 02:56:24;;;;;;;;;;;14.80;99.90;;;;;;5026046;28;19928;-71
2023/08/28 02:58:51;;;;;;;;;;;14.80;99.90;;;;;;5025668;28;19921;-70
2023/08/28 03:01:18;;;;;;;;;;;14.80;99.90;;;;;;5025667;28;19964;-70
2023/08/28 03:03:45;;;;;;;;;;;14.80;99.90;;;;;;5025756;28;19921;-71
2023/08/28 03:06:14;;;;;;;;;;;14.70;99.90;;;;;;5024248;28;19928;-71
2023/08/28 03:08:42;;;;;;;;;;;14.70;99.90;;;;;;5025509;28;19956;-73
2023/08/28 03:11:09;;;;;;;;;;;14.80;99.90;;;;;;5025579;28;19928;-71
2023/08/28 03:13:35;;;;;;;;;;;14.70;99.90;;;;;;5025409;28;19988;-70
2023/08/28 03:16:02;;;;;;;;;;;14.70;99.90;;;;;;5025559;28;19922;-71
2023/08/28 03:18:29;;;;;;;;;;;14.80;99.90;;;;;;5023763;28;20277;-71
2023/08/28 03:20:56;;;;;;;;;;;14.70;99.90;;;;;;5025537;28;19928;-71
2023/08/28 03:23:23;;;;;;;;;;;14.70;99.90;;;;;;5025107;28;20098;-71
2023/08/28 03:25:51;;;;;;;;;;;14.70;99.90;;;;;;5025397;28;19988;-71
2023/08/28 03:28:18;;;;;;;;;;;14.70;99.90;;;;;;5025179;28;19921;-71
2023/08/28 03:30:44;;;;;;;;;;;14.70;99.90;;;;;;5025522;28;20099;-71
2023/08/28 03:33:11;;;;;;;;;;;14.80;99.90;;;;;;5025538;28;19921;-71
2023/08/28 03:35:37;;;;;;;;;;;14.70;99.90;;;;;;5025327;28;20004;-72
2023/08/28 03:38:05;;;;;;;;;;;14.70;99.90;;;;;;5025032;28;19921;-71
2023/08/28 03:40:32;;;;;;;;;;;14.70;99.90;;;;;;5025160;28;20141;-71
2023/08/28 03:43:00;;;;;;;;;;;14.70;99.90;;;;;;5024841;28;20221;-71
2023/08/28 03:45:25;;;;;;;;;;;14.70;99.90;;;;;;5025096;28;19988;-71
2023/08/28 03:47:52;;;;;;;;;;;14.70;99.90;;;;;;5024654;28;19918;-71
2023/08/28 03:50:18;;;;;;;;;;;14.70;99.90;;;;;;5024974;28;19921;-71
2023/08/28 03:52:45;;;;;;;;;;;14.70;99.90;;;;;;5024310;28;20116;-71
2023/08/28 03:55:12;;;;;;;;;;;14.70;99.90;;;;;;5024312;28;19952;-71
2023/08/28 03:57:39;;;;;;;;;;;14.70;99.90;;;;;;5024436;28;19928;-71
2023/08/28 04:00:11;;;;;;;;;;;14.70;99.90;;;;;;5024677;28;20213;-71
2023/08/28 04:02:38;;;;;;;;;;;14.70;99.90;;;;;;5024655;28;20004;-70
2023/08/28 04:05:06;;;;;;;;;;;14.70;99.90;;;;;;5024422;28;19952;-70
2023/08/28 04:07:32;;;;;;;;;;;14.70;99.90;;;;;;5024192;28;20227;-71
2023/08/28 04:09:59;;;;;;;;;;;14.70;99.90;;;;;;5024652;28;19959;-71
2023/08/28 04:12:26;;;;;;;;;;;14.70;99.90;;;;;;5024488;28;19955;-71
2023/08/28 04:14:52;;;;;;;;;;;14.70;99.90;;;;;;5024312;28;19928;-70
2023/08/28 04:17:28;;;;;;;;;;;14.60;99.90;;;;;;5022436;28;20220;-70
2023/08/28 04:19:55;;;;;;;;;;;14.60;99.90;;;;;;5024603;28;19952;-71
2023/08/28 04:22:22;;;;;;;;;;;14.60;99.90;;;;;;5024122;28;20268;-71
2023/08/28 04:24:50;;;;;;;;;;;14.50;99.90;;;;;;5024268;28;19988;-70
2023/08/28 04:27:17;;;;;;;;;;;14.50;99.90;;;;;;5024200;28;20166;-70
2023/08/28 04:29:44;;;;;;;;;;;14.60;99.90;;;;;;5024303;28;20166;-70
2023/08/28 04:32:10;;;;;;;;;;;14.50;99.90;;;;;;5023991;28;20229;-70
2023/08/28 04:34:38;;;;;;;;;;;14.50;99.90;;;;;;5024269;28;19992;-70
2023/08/28 04:37:05;;;;;;;;;;;14.50;99.90;;;;;;5024156;28;19953;-70
2023/08/28 04:39:32;;;;;;;;;;;14.60;99.90;;;;;;5023487;28;20201;-70
2023/08/28 04:41:58;;;;;;;;;;;14.60;99.90;;;;;;5024034;28;19921;-71
2023/08/28 04:44:25;;;;;;;;;;;14.60;99.90;;;;;;5024074;28;19989;-70
2023/08/28 04:46:52;;;;;;;;;;;14.50;99.90;;;;;;5024081;28;19921;-71
2023/08/28 04:49:18;;;;;;;;;;;14.50;99.90;;;;;;5023944;28;20173;-71
2023/08/28 04:51:46;;;;;;;;;;;14.50;99.90;;;;;;5024014;28;19988;-71
2023/08/28 04:54:13;;;;;;;;;;;14.50;99.90;;;;;;5023650;28;19953;-71
2023/08/28 04:56:39;;;;;;;;;;;14.50;99.90;;;;;;5023918;28;19921;-72
2023/08/28 04:59:06;;;;;;;;;;;14.50;99.90;;;;;;5023692;28;19921;-71
2023/08/28 05:01:33;;;;;;;;;;;14.50;99.90;;;;;;5024066;28;19925;-71
2023/08/28 05:04:00;;;;;;;;;;;14.50;99.90;;;;;;5023940;28;19930;-72
2023/08/28 05:06:27;;;;;;;;;;;14.50;99.90;;;;;;5027932;28;19953;-70
2023/08/28 05:08:55;;;;;;;;;;;14.60;99.90;;;;;;5029951;28;19960;-70
2023/08/28 05:11:22;;;;;;;;;;;14.60;99.90;;;;;;5030341;28;19988;-70
2023/08/28 05:13:48;;;;;;;;;;;14.60;99.90;;;;;;5030316;28;19953;-70
2023/08/28 05:16:22;;;;;;;;;;;14.60;99.90;;;;;;5027886;28;19921;-70
2023/08/28 05:18:49;;;;;;;;;;;14.60;99.90;;;;;;5029927;28;19992;-70
2023/08/28 05:21:15;;;;;;;;;;;14.60;99.90;;;;;;5030321;28;19944;-70
2023/08/28 05:23:42;;;;;;;;;;;14.60;99.90;;;;;;5030077;28;19996;-71
2023/08/28 05:26:13;;;;;;;;;;;14.60;99.90;;;;;;5027794;28;19988;-70
2023/08/28 05:28:41;;;;;;;;;;;14.60;99.90;;;;;;5029824;28;19960;-71
2023/08/28 05:31:08;;;;;;;;;;;14.60;99.90;;;;;;5030353;28;19980;-70
2023/08/28 05:33:35;;;;;;;;;;;14.60;99.90;;;;;;5029935;28;19988;-69
2023/08/28 05:36:02;;;;;;;;;;;14.60;99.90;;;;;;5030161;28;19953;-69
2023/08/28 05:38:29;;;;;;;;;;;14.60;99.90;;;;;;5029696;28;20178;-69
2023/08/28 05:40:56;;;;;;;;;;;14.50;99.90;;;;;;5029912;28;19949;-69
2023/08/28 05:43:22;;;;;;;;;;;14.50;99.90;;;;;;5030207;28;19988;-69
2023/08/28 05:45:50;;;;;;;;;;;14.60;99.90;;;;;;5030061;28;19921;-71
2023/08/28 05:48:17;;;;;;;;;;;14.50;99.90;;;;;;5029528;28;20157;-70
2023/08/28 10:01:14;;;;;;;;;;;15.20;99.90;;;;;;5022901;28;19977;-71
2023/08/28 10:03:41;;;;;;;;;;;15.20;99.90;;;;;;5027173;28;19928;-71
2023/08/28 10:09:04;;;;;;;;;;;15.20;99.90;;;;;;5026023;28;19918;-71
2023/08/28 10:11:42;;;;;;;;;;;15.20;99.90;;;;;;5027212;28;19921;-71
2023/08/28 10:14:19;;;;;;;;;;;15.20;99.90;;;;;;5026640;28;19921;-72
2023/08/28 10:16:54;;;;;;;;;;;15.30;99.90;;;;;;5024299;28;19984;-72
2023/08/28 10:19:29;;;;;;;;;;;15.20;99.90;;;;;;5026478;28;19926;-71
2023/08/28 10:21:58;;;;;;;;;;;15.30;99.90;;;;;;5026717;28;20356;-72
2023/08/28 10:24:28;;;;;;;;;;;15.30;99.90;;;;;;5026186;28;19928;-72
2023/08/28 10:27:05;;;;;;;;;;;15.30;99.90;;;;;;5025508;28;19957;-71
2023/08/28 10:29:47;;;;;;;;;;;15.40;99.90;;;;;;5026289;28;19928;-71
2023/08/28 10:32:26;;;;;;;;;;;15.40;99.90;;;;;;5026608;28;19921;-71
2023/08/28 10:35:01;;;;;;;;;;;15.30;99.90;;;;;;5026275;28;20116;-71
2023/08/28 10:37:34;;;;;;;;;;;15.30;99.90;;;;;;5025180;28;19968;-72
2023/08/28 10:40:20;;;;;;;;;;;15.30;99.90;;;;;;5026238;28;19928;-72
2023/08/28 10:45:47;;;;;;;;;;;15.20;99.90;;;;;;5020876;28;19917;-71
2023/08/28 11:41:14;;;;;;;;;;;15.30;99.90;;;;;;4795325;30;19936;-71
2023/08/28 11:43:42;;;;;;;;;;;15.30;99.90;;;;;;4868342;29;20183;-69
2023/08/28 11:46:11;;;;;;;;;;;15.40;99.90;;;;;;4987880;28;20264;-70
2023/08/28 11:48:38;;;;;;;;;;;15.40;99.90;;;;;;5024602;28;19943;-70
2023/08/28 11:51:06;;;;;;;;;;;15.40;99.90;;;;;;5024908;28;19992;-70
2023/08/28 11:53:33;;;;;;;;;;;15.40;99.90;;;;;;5024826;28;19921;-70
2023/08/28 11:56:04;;;;;;;;;;;15.30;99.90;;;;;;5024987;28;19984;-71
2023/08/28 11:58:31;;;;;;;;;;;15.30;99.90;;;;;;5024405;28;19943;-70
2023/08/28 12:01:00;;;;;;;;;;;15.30;99.90;;;;;;5025059;28;20161;-70
2023/08/28 12:03:27;;;;;;;;;;;15.30;99.90;;;;;;5024686;28;19921;-70
2023/08/28 12:06:06;;;;;;;;;;;15.20;99.90;;;;;;5024622;28;19988;-70
2023/08/28 12:08:33;;;;;;;;;;;15.30;99.90;;;;;;5024203;28;19928;-70
2023/08/28 12:11:00;;;;;;;;;;;15.40;99.90;;;;;;5024510;28;20173;-70
2023/08/28 12:13:27;;;;;;;;;;;15.40;99.90;;;;;;5024681;28;19960;-70
2023/08/28 12:16:06;;;;;;;;;;;15.50;99.90;;;;;;5024128;28;19921;-71
2023/08/28 12:18:42;;;;;;;;;;;15.50;99.90;;;;;;5024226;28;19989;-71
2023/08/28 12:21:09;;;;;;;;;;;15.50;99.90;;;;;;5024816;28;19971;-71
2023/08/28 12:23:44;;;;;;;;;;;15.50;99.90;;;;;;5024578;28;20000;-71
2023/08/28 12:26:11;;;;;;;;;;;15.50;99.90;;;;;;5024608;28;20005;-70
2023/08/28 12:28:38;;;;;;;;;;;15.60;99.90;;;;;;5023972;28;19988;-70
2023/08/28 12:31:04;;;;;;;;;;;15.60;99.90;;;;;;5024647;28;19922;-71
2023/08/28 12:33:38;;;;;;;;;;;15.60;99.90;;;;;;5024283;28;19921;-71
2023/08/28 12:36:05;;;;;;;;;;;15.70;99.90;;;;;;5024372;28;19928;-71
2023/08/28 12:38:31;;;;;;;;;;;15.70;99.90;;;;;;5023929;28;19992;-70
2023/08/28 12:41:11;;;;;;;;;;;15.70;99.90;;;;;;5021548;28;20209;-70
2023/08/28 12:43:39;;;;;;;;;;;15.70;99.90;;;;;;5024211;28;19996;-70
2023/08/28 12:46:05;;;;;;;;;;;15.70;99.90;;;;;;5023834;28;19922;-70
2023/08/28 12:48:32;;;;;;;;;;;15.80;99.90;;;;;;5023344;28;19993;-70
2023/08/28 12:51:00;;;;;;;;;;;15.80;99.90;;;;;;5024075;28;19921;-70
2023/08/28 12:53:27;;;;;;;;;;;15.80;99.90;;;;;;5023821;28;20256;-70
2023/08/28 12:55:54;;;;;;;;;;;15.70;99.90;;;;;;5021416;28;19928;-70
2023/08/28 12:58:21;;;;;;;;;;;15.70;99.90;;;;;;5023472;28;19988;-69
2023/08/28 13:00:47;;;;;;;;;;;15.70;99.90;;;;;;5023976;28;20110;-70
2023/08/28 13:03:14;;;;;;;;;;;15.70;99.90;;;;;;5023714;28;19922;-70
2023/08/28 13:05:41;;;;;;;;;;;15.60;99.90;;;;;;5023614;28;20228;-69
2023/08/28 13:08:09;;;;;;;;;;;15.60;99.90;;;;;;5023057;28;19921;-70
2023/08/28 13:10:38;;;;;;;;;;;15.60;99.90;;;;;;5023656;28;19981;-71
2023/08/28 13:13:05;;;;;;;;;;;15.60;99.90;;;;;;5023526;28;20209;-69
2023/08/28 13:15:31;;;;;;;;;;;15.60;99.90;;;;;;5017133;28;19944;-70
2023/08/28 13:17:58;;;;;;;;;;;15.60;99.90;;;;;;5023154;28;19956;-71
2023/08/28 13:20:27;;;;;;;;;;;15.60;99.90;;;;;;5023372;28;19928;-71
2023/08/28 13:22:53;;;;;;;;;;;15.60;99.90;;;;;;5023416;28;20216;-71
2023/08/28 13:25:22;;;;;;;;;;;15.60;99.90;;;;;;5022009;28;19960;-71
2023/08/28 13:27:48;;;;;;;;;;;15.60;99.90;;;;;;5027030;28;19980;-71
2023/08/28 13:30:19;;;;;;;;;;;15.60;99.90;;;;;;5024742;28;19928;-71
2023/08/28 13:32:46;;;;;;;;;;;15.60;99.90;;;;;;5027642;28;19953;-70
2023/08/28 13:35:13;;;;;;;;;;;15.60;99.90;;;;;;5027553;28;19981;-71
2023/08/28 13:37:39;;;;;;;;;;;15.60;99.90;;;;;;5027050;28;19921;-71
2023/08/28 13:40:07;;;;;;;;;;;15.50;99.90;;;;;;5027487;28;20204;-70
2023/08/28 13:42:37;;;;;;;;;;;15.40;99.90;;;;;;5024758;28;20079;-70
2023/08/28 13:45:03;;;;;;;;;;;15.50;99.90;;;;;;5027453;28;19992;-70
2023/08/28 13:47:30;;;;;;;;;;;15.50;99.90;;;;;;5026791;28;20149;-71
2023/08/28 13:49:57;;;;;;;;;;;15.50;99.90;;;;;;5027384;28;19922;-71
2023/08/28 13:52:24;;;;;;;;;;;15.50;99.90;;;;;;5027217;28;20099;-71
2023/08/28 13:54:51;;;;;;;;;;;15.50;99.90;;;;;;5027317;28;19921;-71
2023/08/28 13:57:17;;;;;;;;;;;15.50;99.90;;;;;;5026980;28;19922;-71
2023/08/28 13:59:45;;;;;;;;;;;15.40;99.90;;;;;;5027201;28;19927;-70
2023/08/28 14:02:12;;;;;;;;;;;15.40;99.90;;;;;;5027020;28;19981;-70
2023/08/28 14:04:39;;;;;;;;;;;15.40;99.90;;;;;;5027087;28;19921;-72
2023/08/28 14:07:12;;;;;;;;;;;15.30;99.90;;;;;;5024602;28;19943;-71
2023/08/28 14:09:39;;;;;;;;;;;15.30;99.90;;;;;;5026226;28;19985;-71
2023/08/28 14:12:06;;;;;;;;;;;15.30;99.90;;;;;;5027133;28;19964;-71
2023/08/28 14:14:32;;;;;;;;;;;15.20;99.90;;;;;;5026829;28;20255;-71
2023/08/28 14:17:00;;;;;;;;;;;15.20;99.90;;;;;;5026830;28;19985;-70
2023/08/28 14:19:27;;;;;;;;;;;15.30;99.90;;;;;;5026359;28;19980;-71
2023/08/28 14:21:53;;;;;;;;;;;15.20;99.90;;;;;;5026898;28;20180;-71
2023/08/28 14:24:25;;;;;;;;;;;15.20;99.90;;;;;;5025259;28;19992;-71
2023/08/28 14:26:58;;;;;;;;;;;15.20;99.90;;;;;;5023890;28;19928;-70
2023/08/28 14:29:26;;;;;;;;;;;15.20;99.90;;;;;;5026062;28;19953;-70
2023/08/28 14:31:53;;;;;;;;;;;15.10;99.90;;;;;;5026659;28;19921;-72
2023/08/28 14:34:21;;;;;;;;;;;15.10;99.90;;;;;;5026445;28;19957;-71
2023/08/28 14:36:47;;;;;;;;;;;15.10;99.90;;;;;;5025521;28;20278;-69
2023/08/28 14:39:14;;;;;;;;;;;15.10;99.90;;;;;;5025599;28;19922;-70
2023/08/28 14:41:43;;;;;;;;;;;15.20;99.90;;;;;;5023666;28;19922;-70
2023/08/28 14:44:10;;;;;;;;;;;15.10;99.90;;;;;;5026040;28;19989;-71
2023/08/28 14:46:37;;;;;;;;;;;15.20;99.90;;;;;;5026546;28;19929;-70
2023/08/28 14:49:03;;;;;;;;;;;15.10;99.90;;;;;;5025620;28;19952;-70
2023/08/28 14:51:31;;;;;;;;;;;15.20;99.90;;;;;;5026231;28;19921;-70
2023/08/28 14:53:59;;;;;;;;;;;15.20;99.90;;;;;;5025961;28;19957;-71
2023/08/28 14:56:26;;;;;;;;;;;15.20;99.90;;;;;;5026097;28;19922;-71
2023/08/28 14:58:52;;;;;;;;;;;15.20;99.90;;;;;;5025366;28;19956;-70
2023/08/28 15:01:19;;;;;;;;;;;15.10;99.90;;;;;;5026377;28;19928;-73
2023/08/28 15:03:47;;;;;;;;;;;15.10;99.90;;;;;;5023735;28;19964;-73
2023/08/28 15:06:14;;;;;;;;;;;15.10;99.90;;;;;;5025773;28;20082;-70
2023/08/28 15:08:42;;;;;;;;;;;15.10;99.90;;;;;;5025146;28;19989;-69
2023/08/28 15:11:09;;;;;;;;;;;15.10;99.90;;;;;;5026107;28;19984;-70
2023/08/28 15:13:36;;;;;;;;;;;15.00;99.90;;;;;;5025452;28;19921;-71
2023/08/28 15:16:04;;;;;;;;;;;15.00;99.90;;;;;;5025531;28;20198;-69
2023/08/28 15:18:31;;;;;;;;;;;15.00;99.90;;;;;;5024879;28;19925;-70
2023/08/28 15:20:58;;;;;;;;;;;15.10;99.90;;;;;;5025744;28;19957;-70
2023/08/28 15:23:24;;;;;;;;;;;15.00;99.90;;;;;;5025210;28;19921;-69
2023/08/28 15:25:52;;;;;;;;;;;15.00;99.90;;;;;;5025654;28;20118;-69
2023/08/28 15:28:19;;;;;;;;;;;15.00;99.90;;;;;;5024854;28;20117;-69
2023/08/28 15:30:50;;;;;;;;;;;15.00;99.90;;;;;;5025700;28;19922;-69
2023/08/28 15:33:16;;;;;;;;;;;15.10;99.90;;;;;;5026008;28;19980;-69
2023/08/28 15:35:43;;;;;;;;;;;15.10;99.90;;;;;;5026844;28;19985;-69
2023/08/28 15:38:10;;;;;;;;;;;15.10;99.90;;;;;;5028934;28;19984;-69
2023/08/28 15:40:36;;;;;;;;;;;15.10;99.90;;;;;;5025444;28;19985;-69
2023/08/28 15:43:04;;;;;;;;;;;15.10;99.90;;;;;;5025154;28;19964;-69
2023/08/28 15:45:31;;;;;;;;;;;15.10;99.90;;;;;;5022705;28;19960;-69
2023/08/28 15:47:58;;;;;;;;;;;15.10;99.90;;;;;;5024744;28;19984;-69
2023/08/28 15:50:24;;;;;;;;;;;15.10;99.90;;;;;;5023593;28;20266;-69
2023/08/28 15:52:51;;;;;;;;;;;15.10;99.90;;;;;;5024417;28;19984;-69
2023/08/28 15:55:18;;;;;;;;;;;15.20;99.90;;;;;;5024313;28;20206;-70
2023/08/28 15:57:45;;;;;;;;;;;15.10;99.90;;;;;;5024372;28;19984;-69
2023/08/28 16:00:14;;;;;;;;;;;15.10;99.90;;;;;;5021546;28;19989;-69
2023/08/28 16:02:41;;;;;;;;;;;15.10;99.90;;;;;;5023677;28;19922;-69
2023/08/28 16:05:08;;;;;;;;;;;15.10;99.90;;;;;;5024343;28;20244;-69
2023/08/28 16:07:35;;;;;;;;;;;15.10;99.90;;;;;;5024239;28;19945;-69
2023/08/28 16:25:09;;;;;;;;;;;14.90;99.90;;;;;;5024323;28;19919;-70
2023/08/28 16:27:37;;;;;;;;;;;14.90;99.90;;;;;;5023564;28;20233;-70
2023/08/28 16:30:04;;;;;;;;;;;14.90;99.90;;;;;;5024186;28;19945;-69
2023/08/28 16:32:31;;;;;;;;;;;14.90;99.90;;;;;;5024290;28;19928;-69
2023/08/28 16:34:59;;;;;;;;;;;14.80;99.90;;;;;;5024322;28;19922;-69
2023/08/28 16:37:25;;;;;;;;;;;14.90;99.90;;;;;;5023744;28;19960;-70
2023/08/28 16:39:52;;;;;;;;;;;14.90;99.90;;;;;;5024284;28;19921;-70
2023/08/28 16:42:19;;;;;;;;;;;14.80;99.90;;;;;;5024340;28;19952;-71
2023/08/28 16:44:46;;;;;;;;;;;14.90;99.90;;;;;;5023879;28;19961;-70
2023/08/28 16:47:12;;;;;;;;;;;14.80;99.90;;;;;;5024372;28;20165;-70
2023/08/28 16:49:39;;;;;;;;;;;14.80;99.90;;;;;;5023529;28;20158;-70
2023/08/28 16:52:08;;;;;;;;;;;14.80;99.90;;;;;;5021388;28;20012;-70
2023/08/28 16:54:35;;;;;;;;;;;14.80;99.90;;;;;;5006421;28;19984;-70
2023/08/28 16:57:02;;;;;;;;;;;14.70;99.90;;;;;;5024217;28;19928;-70
2023/08/28 16:59:28;;;;;;;;;;;14.70;99.90;;;;;;5023757;28;19927;-70
2023/08/28 17:01:55;;;;;;;;;;;14.80;99.90;;;;;;5023749;28;19984;-70
2023/08/28 17:04:27;;;;;;;;;;;14.80;99.90;;;;;;5020789;28;19921;-69
2023/08/28 17:06:53;;;;;;;;;;;14.80;99.90;;;;;;5023572;28;19921;-70
2023/08/28 17:09:21;;;;;;;;;;;14.70;99.90;;;;;;5023344;28;19928;-69
2023/08/28 17:11:48;;;;;;;;;;;14.70;99.90;;;;;;5023895;28;19922;-68
2023/08/28 17:14:15;;;;;;;;;;;14.70;99.90;;;;;;5024001;28;19989;-70
2023/08/28 17:16:43;;;;;;;;;;;14.70;99.90;;;;;;5021334;28;19922;-69
2023/08/28 17:19:10;;;;;;;;;;;14.70;99.90;;;;;;5023116;28;19976;-69
2023/08/28 17:21:37;;;;;;;;;;;14.60;99.90;;;;;;5023495;28;19927;-69
2023/08/28 17:24:03;;;;;;;;;;;14.70;99.90;;;;;;5023773;28;19997;-69
2023/08/28 17:26:31;;;;;;;;;;;14.70;99.90;;;;;;5023461;28;19952;-70
2023/08/28 17:28:59;;;;;;;;;;;14.70;99.90;;;;;;5023292;28;19964;-69
2023/08/28 17:31:25;;;;;;;;;;;14.70;99.90;;;;;;5023835;28;19922;-69
2023/08/28 17:33:52;;;;;;;;;;;14.70;99.90;;;;;;5023773;28;19984;-69
2023/08/28 17:36:20;;;;;;;;;;;14.70;99.90;;;;;;5023701;28;19926;-69
2023/08/28 17:38:46;;;;;;;;;;;14.70;99.90;;;;;;5022704;28;19918;-69
2023/08/28 17:41:13;;;;;;;;;;;14.70;99.90;;;;;;5023514;28;19990;-70
2023/08/28 17:43:41;;;;;;;;;;;14.60;99.90;;;;;;5023518;28;19993;-70
2023/08/28 17:46:08;;;;;;;;;;;14.60;99.90;;;;;;5023525;28;19922;-70
2023/08/28 17:48:34;;;;;;;;;;;14.60;99.90;;;;;;5023053;28;19989;-70
2023/08/28 17:51:06;;;;;;;;;;;14.60;99.90;;;;;;5023615;28;20180;-70
2023/08/28 17:53:34;;;;;;;;;;;14.60;99.90;;;;;;5020993;28;19922;-70
2023/08/28 17:56:01;;;;;;;;;;;14.60;99.90;;;;;;5023266;28;19945;-71
2023/08/28 17:58:27;;;;;;;;;;;14.60;99.90;;;;;;5023131;28;19989;-70
2023/08/28 18:00:56;;;;;;;;;;;14.50;99.90;;;;;;5023624;28;19984;-70
2023/08/28 18:03:23;;;;;;;;;;;14.50;99.90;;;;;;5023433;28;19980;-70
2023/08/28 18:05:49;;;;;;;;;;;14.50;99.90;;;;;;5023273;28;19992;-70
2023/08/28 18:08:16;;;;;;;;;;;14.60;99.90;;;;;;5022859;28;19924;-70
2023/08/28 18:10:43;;;;;;;;;;;14.60;99.90;;;;;;5022184;28;19928;-70
2023/08/28 18:13:09;;;;;;;;;;;14.60;99.90;;;;;;5024800;28;20171;-70
2023/08/28 18:15:38;;;;;;;;;;;14.60;99.90;;;;;;5026588;28;19921;-70
2023/08/28 18:18:06;;;;;;;;;;;14.60;99.90;;;;;;5025548;28;19921;-70
2023/08/28 18:20:33;;;;;;;;;;;14.60;99.90;;;;;;5026800;28;19992;-69
2023/08/28 18:23:01;;;;;;;;;;;14.60;99.90;;;;;;5026639;28;19922;-70
2023/08/28 18:25:27;;;;;;;;;;;14.50;99.90;;;;;;5026588;28;19921;-70
2023/08/28 18:27:54;;;;;;;;;;;14.50;99.90;;;;;;5025925;28;19960;-70
2023/08/28 18:30:21;;;;;;;;;;;14.50;99.90;;;;;;5026723;28;19921;-71
2023/08/28 18:32:47;;;;;;;;;;;14.50;99.90;;;;;;5024028;28;19922;-70
2023/08/28 18:35:15;;;;;;;;;;;14.50;99.90;;;;;;5026347;28;19996;-70
2023/08/28 18:37:42;;;;;;;;;;;14.50;99.90;;;;;;5025921;28;19996;-71
2023/08/28 18:40:09;;;;;;;;;;;14.60;99.90;;;;;;5026191;28;20066;-70
2023/08/28 18:42:36;;;;;;;;;;;14.50;99.90;;;;;;5026368;28;19987;-70
2023/08/28 18:45:02;;;;;;;;;;;14.50;99.90;;;;;;5025953;28;19928;-70
2023/08/28 18:47:29;;;;;;;;;;;14.50;99.90;;;;;;5025874;28;19956;-70
2023/08/28 18:49:56;;;;;;;;;;;14.50;99.90;;;;;;5024562;28;19997;-70
2023/08/28 18:52:24;;;;;;;;;;;14.40;99.90;;;;;;5024317;28;20109;-70
2023/08/28 18:54:51;;;;;;;;;;;14.50;99.90;;;;;;5025436;28;20272;-70
2023/08/28 18:57:18;;;;;;;;;;;14.50;99.90;;;;;;5025261;28;20217;-70
2023/08/28 18:59:45;;;;;;;;;;;14.50;99.90;;;;;;5025931;28;20028;-70
2023/08/28 19:02:11;;;;;;;;;;;14.40;99.90;;;;;;5025759;28;20179;-70
2023/08/28 19:04:39;;;;;;;;;;;14.40;99.90;;;;;;5025903;28;19928;-69
2023/08/28 19:07:07;;;;;;;;;;;14.40;99.90;;;;;;5025677;28;19921;-70
2023/08/28 19:09:35;;;;;;;;;;;14.40;99.90;;;;;;5025309;28;19928;-70
2023/08/28 19:12:02;;;;;;;;;;;14.40;99.90;;;;;;5025643;28;19921;-71
2023/08/28 19:14:28;;;;;;;;;;;14.40;99.90;;;;;;5023964;28;20086;-71
2023/08/28 19:16:56;;;;;;;;;;;14.40;99.90;;;;;;5005945;28;20009;-70
2023/08/28 19:19:22;;;;;;;;;;;14.40;99.90;;;;;;5014835;28;19921;-71
2023/08/28 19:21:49;;;;;;;;;;;14.40;99.90;;;;;;5025482;28;19927;-70
2023/08/28 19:24:15;;;;;;;;;;;14.40;99.90;;;;;;5024958;28;19957;-70
2023/08/28 19:26:44;;;;;;;;;;;14.40;99.90;;;;;;5025255;28;19960;-70
2023/08/28 19:29:10;;;;;;;;;;;14.40;99.90;;;;;;5024901;28;19984;-70
2023/08/28 19:31:37;;;;;;;;;;;14.40;99.90;;;;;;5025331;28;19953;-70
2023/08/28 19:34:04;;;;;;;;;;;14.40;99.90;;;;;;5023835;28;20233;-70
2023/08/28 19:36:30;;;;;;;;;;;14.30;99.90;;;;;;5024551;28;19928;-70
2023/08/28 19:38:57;;;;;;;;;;;14.30;99.90;;;;;;5024431;28;19960;-70
2023/08/28 19:41:24;;;;;;;;;;;14.20;99.90;;;;;;5023805;28;19921;-70
2023/08/28 19:43:52;;;;;;;;;;;14.20;99.90;;;;;;5025136;28;19928;-70